Aurora, Minnesota
Current Conditions -  °F | °C
As of 3:11 PM on Wednesday 26 Nov 2014 (Local Time) from KEVM Reporting Station
Scattered Clouds Scattered Clouds  
Wind Chill:   Ceiling: Unl
Heat Index: 16°   Visibility: 10mi
Dew Point:   Wind: 10mph
Humidity: 62%   Direction: 330°NNW
Pressure: 30.25"   Gusts: 17mph
Location:  47.53°N, 92.24°W
Report Text: KEVM 262111Z AUTO 33009G15KT 10SM SCT027 M09/M15 A3025 RMK AO2
Loading
Personal Weather Stations






























Interactive Weather Map New forecast layout! Learn more

10-Day Weather Forecast

Advertisements
Track Severe Weather on mobile